CheckWX is a tool to help pilots better visualize weather data.  It is not intended as a substitute for an official pre-flight weather briefing.

21:01:13 UTC

KSCD METAR
Merkel Field Sylacauga Municipal Airport
Sylacauga, Alabama, USA
Current

6 mins ago

KSCD 182055Z AUTO 03008G15KT 350V050 10SM SCT110 14/M07 A3023 RMK AO2 T01391069
Observed
Feb-18 @ 20:55 UTC
Wind
  • 030° at 8 KTS
  • Gusting to 15 KTS
Visibility
10 SM
Flight Rules
VFR
Cloud Levels
  • Scattered at 11,000' AGL
Temperature
14°C / 57°F
Dewpoint
-7°C / 19°F
Humidity
23%
Altimeter
30.23" Hg
Pressure
1023.72 hPa
Previous

26 mins ago

KSCD 182035Z AUTO 02007KT 10SM CLR 14/M02 A3023 RMK AO2 T01401019
Observed
Feb-18 @ 20:35 UTC
Wind
  • 020° at 7 KTS
Visibility
10 SM
Flight Rules
VFR
Cloud Levels
  • Clear skies
Temperature
14°C / 57°F
Dewpoint
-2°C / 28°F
Humidity
33%
Altimeter
30.23" Hg
Pressure
1023.72 hPa
Previous

46 mins ago

KSCD 182015Z AUTO 02009G16KT 360V060 10SM CLR 14/M02 A3023 RMK AO2 T01371023
Observed
Feb-18 @ 20:15 UTC
Wind
  • 020° at 9 KTS
  • Gusting to 16 KTS
Visibility
10 SM
Flight Rules
VFR
Cloud Levels
  • Clear skies
Temperature
14°C / 57°F
Dewpoint
-2°C / 28°F
Humidity
33%
Altimeter
30.23" Hg
Pressure
1023.72 hPa